Time;durP1;ratioP1;P1;durP2;ratioP2;P2;SDS_P1;SDS_P2;PMS_P1;PMS_P2;Temp;Humidity;BMP_temperature;BMP_pressure;BME280_temperature;BME280_humidity;BME280_pressure;Samples;Min_cycle;Max_cycle;Signal;HPM_P1;HPM_P2
2024/01/07 00:03:57;;;;;;;3.95;3.05;;;;;;;5.35;93.54;98679.38;7278291;40;20245;31
2024/01/07 00:09:18;;;;;;;4.77;3.60;;;;;;;5.41;93.92;98685.97;7242868;40;20241;31
2024/01/07 00:14:53;;;;;;;4.20;3.30;;;;;;;5.41;93.26;98684.16;7217842;40;20795;31
2024/01/07 00:20:30;;;;;;;5.00;3.57;;;;;;;5.49;93.15;98679.91;7178574;40;20907;31
2024/01/07 00:25:50;;;;;;;4.20;3.20;;;;;;;5.45;93.29;98690.87;7241157;39;20783;31
2024/01/07 00:36:32;;;;;;;4.73;3.30;;;;;;;5.32;92.95;98692.19;7240013;40;21451;31
2024/01/07 00:46:53;;;;;;;3.93;3.20;;;;;;;5.38;92.67;98696.97;7246194;40;21370;31
2024/01/07 00:52:31;;;;;;;3.60;3.10;;;;;;;5.42;92.55;98688.50;7296017;39;20322;31
2024/01/07 00:58:07;;;;;;;3.90;3.40;;;;;;;5.40;92.39;98695.81;7282824;39;20241;31
2024/01/07 01:03:27;;;;;;;4.17;3.60;;;;;;;5.49;92.70;98709.28;7296838;39;20775;31
2024/01/07 01:09:05;;;;;;;4.05;3.30;;;;;;;5.40;92.84;98703.00;7262356;39;20254;31
2024/01/07 01:14:40;;;;;;;4.37;3.50;;;;;;;5.40;92.89;98717.19;7281301;39;20384;31
2024/01/07 01:20:15;;;;;;;4.40;3.57;;;;;;;5.31;92.35;98718.06;7175669;40;20790;31
2024/01/07 01:25:52;;;;;;;5.25;3.70;;;;;;;5.34;92.22;98719.63;7194930;40;20801;31
2024/01/07 01:31:28;;;;;;;4.30;3.47;;;;;;;5.34;92.45;98727.66;7210189;40;20830;31
2024/01/07 01:42:09;;;;;;;5.97;4.00;;;;;;;5.29;92.62;98733.44;7222444;40;20741;31
2024/01/07 01:47:44;;;;;;;5.00;3.80;;;;;;;5.20;92.58;98736.97;7261498;39;20768;31
2024/01/07 01:53:19;;;;;;;6.90;4.10;;;;;;;5.24;93.07;98745.53;7215989;40;20944;31
2024/01/07 01:58:55;;;;;;;4.67;3.50;;;;;;;5.08;93.43;98739.94;7181744;40;20857;31
2024/01/07 02:04:30;;;;;;;3.85;3.20;;;;;;;5.08;93.75;98743.47;7222426;40;21534;31
2024/01/07 02:10:05;;;;;;;5.43;4.13;;;;;;;5.16;94.11;98743.56;7268808;39;20786;31
2024/01/07 02:15:42;;;;;;;4.50;3.17;;;;;;;5.09;93.49;98742.44;7217521;40;22035;31
2024/01/07 02:21:02;;;;;;;4.33;3.17;;;;;;;5.08;93.87;98742.63;7162805;40;20766;31
2024/01/07 02:26:37;;;;;;;3.87;3.00;;;;;;;5.10;93.64;98735.28;7208766;40;20760;31
2024/01/07 02:31:58;;;;;;;5.00;3.80;;;;;;;5.20;93.62;98741.47;7219513;40;20909;31
2024/01/07 02:37:18;;;;;;;3.87;3.43;;;;;;;5.20;93.32;98741.47;7245484;39;20795;31
2024/01/07 02:47:55;;;;;;;5.50;3.70;;;;;;;5.16;92.78;98743.56;7202962;40;20356;31
2024/01/07 02:58:17;;;;;;;4.20;3.30;;;;;;;5.30;92.72;98751.16;7296801;39;21548;31
2024/01/07 03:03:55;;;;;;;4.95;3.45;;;;;;;5.27;92.88;98747.91;7259172;39;20390;31
2024/01/07 03:09:14;;;;;;;4.10;3.60;;;;;;;5.38;92.69;98755.75;7283385;39;20982;31
2024/01/07 03:14:46;;;;;;;5.25;3.70;;;;;;;5.37;92.62;98760.25;7256175;40;20280;31
2024/01/07 03:25:25;;;;;;;4.60;3.25;;;;;;;5.35;92.37;98762.22;7228195;40;21340;31
2024/01/07 03:36:01;;;;;;;4.87;3.50;;;;;;;5.26;91.96;98767.59;7288825;39;21585;31
2024/01/07 03:41:37;;;;;;;3.80;2.63;;;;;;;5.25;92.21;98769.44;7274675;40;20884;31
2024/01/07 03:46:58;;;;;;;4.03;3.07;;;;;;;5.26;91.82;98771.12;7058978;40;21711;31
2024/01/07 03:52:34;;;;;;;3.63;3.17;;;;;;;5.23;91.64;98773.22;7237285;40;20784;31
2024/01/07 03:58:09;;;;;;;3.70;3.30;;;;;;;5.15;92.11;98775.75;7176919;40;20892;31
2024/01/07 04:03:29;;;;;;;4.10;3.30;;;;;;;5.31;92.66;98784.06;7147214;40;20258;31
2024/01/07 04:08:49;;;;;;;4.17;3.23;;;;;;;5.34;91.98;98786.44;7189697;40;20879;31
2024/01/07 04:14:27;;;;;;;4.60;3.65;;;;;;;5.38;91.86;98779.81;7199266;40;20424;31
2024/01/07 04:25:08;;;;;;;4.67;3.37;;;;;;;5.20;91.95;98800.22;7315550;39;20276;31
2024/01/07 04:35:45;;;;;;;5.03;3.90;;;;;;;5.10;92.43;98788.69;7269133;40;20283;31
2024/01/07 04:41:07;;;;;;;4.50;3.80;;;;;;;5.06;92.33;98798.84;7258434;40;20800;31
2024/01/07 04:46:41;;;;;;;4.53;3.50;;;;;;;5.06;92.72;98796.16;7241060;40;20807;31
2024/01/07 04:52:16;;;;;;;4.60;3.57;;;;;;;5.07;92.77;98797.00;7277870;39;20255;31
2024/01/07 04:57:36;;;;;;;4.83;3.83;;;;;;;5.13;92.80;98801.78;7249534;40;20285;31
2024/01/07 05:03:11;;;;;;;4.03;2.67;;;;;;;4.95;92.72;98817.69;7247411;40;20252;31
2024/01/07 05:08:48;;;;;;;4.33;3.40;;;;;;;4.89;93.63;98815.56;7224836;40;20246;31
2024/01/07 05:14:24;;;;;;;5.67;3.40;;;;;;;4.88;93.61;98827.22;7197301;40;20266;31
2024/01/07 05:20:00;;;;;;;4.20;3.37;;;;;;;4.97;93.00;98824.56;7217243;40;20260;31
2024/01/07 05:25:36;;;;;;;4.87;3.23;;;;;;;5.02;92.84;98831.31;7168285;40;20740;31
2024/01/07 05:30:57;;;;;;;4.10;3.30;;;;;;;5.15;92.62;98831.84;7177827;40;20243;31
2024/01/07 05:36:17;;;;;;;4.63;3.20;;;;;;;5.31;92.37;98840.97;7189162;40;20261;31
2024/01/07 05:41:54;;;;;;;4.40;3.45;;;;;;;5.26;91.67;98839.75;7251963;39;20763;31
2024/01/07 05:47:14;;;;;;;4.23;3.50;;;;;;;5.33;92.00;98855.06;7251198;40;20909;31
2024/01/07 05:52:50;;;;;;;3.80;3.37;;;;;;;5.39;91.41;98862.50;7239680;40;21492;31
2024/01/07 05:58:24;;;;;;;3.70;3.20;;;;;;;5.33;91.18;98864.91;7246154;40;20238;31
2024/01/07 06:03:45;;;;;;;4.43;3.60;;;;;;;5.36;91.75;98870.78;7248415;40;20390;31
2024/01/07 06:09:05;;;;;;;4.80;3.80;;;;;;;5.39;91.24;98869.69;7225099;40;20796;31
2024/01/07 06:19:40;;;;;;;4.53;3.67;;;;;;;5.27;91.51;98871.66;7290445;39;21582;31
2024/01/07 06:25:15;;;;;;;3.87;3.30;;;;;;;5.22;91.35;98879.22;7303855;39;20243;31
2024/01/07 06:30:50;;;;;;;3.85;3.25;;;;;;;5.29;91.65;98876.84;7250542;40;20821;31
2024/01/07 06:36:26;;;;;;;4.15;3.30;;;;;;;5.27;91.16;98898.34;7238470;40;21010;31
2024/01/07 06:41:43;;;;;;;3.80;3.20;;;;;;;5.13;92.05;98906.81;7179947;40;20400;31
2024/01/07 06:47:04;;;;;;;4.45;3.80;;;;;;;5.12;91.78;98909.63;7175099;40;20917;31
2024/01/07 06:52:40;;;;;;;3.15;2.30;;;;;;;4.87;93.43;98903.00;7232289;40;20916;31
2024/01/07 06:58:15;;;;;;;4.80;3.75;;;;;;;4.93;93.91;98911.28;7218822;40;20909;31
2024/01/07 07:03:50;;;;;;;5.25;4.10;;;;;;;5.05;92.86;98927.16;7195886;40;20385;31
2024/01/07 07:09:26;;;;;;;5.30;4.20;;;;;;;5.15;92.35;98925.34;7181254;40;20868;31
2024/01/07 07:15:01;;;;;;;5.67;4.07;;;;;;;5.11;92.44;98940.81;7189182;40;20266;31
2024/01/07 07:20:36;;;;;;;5.20;4.00;;;;;;;5.16;91.80;98946.59;7158407;40;20372;31
2024/01/07 07:26:13;;;;;;;7.00;4.80;;;;;;;5.16;92.18;98949.28;7171676;40;20242;31
2024/01/07 07:31:34;;;;;;;8.40;5.20;;;;;;;5.19;92.62;98959.66;7198552;40;20243;31
2024/01/07 07:37:11;;;;;;;6.55;5.15;;;;;;;5.13;92.58;98964.72;7246766;40;20878;31
2024/01/07 07:42:44;;;;;;;8.17;5.23;;;;;;;5.09;92.93;98956.13;7236795;40;20872;31
2024/01/07 07:48:05;;;;;;;7.67;5.60;;;;;;;5.10;93.43;98971.19;7212507;40;20787;31
2024/01/07 07:53:26;;;;;;;9.30;6.47;;;;;;;5.13;93.46;98981.59;7188867;40;20242;31
2024/01/07 07:59:00;;;;;;;8.70;5.70;;;;;;;5.03;93.67;98974.53;7250755;39;20937;31
2024/01/07 08:04:21;;;;;;;8.03;6.23;;;;;;;5.05;94.19;98977.91;7256261;40;20988;31
2024/01/07 08:09:41;;;;;;;10.47;7.33;;;;;;;4.99;93.85;98984.66;7215034;40;20764;31
2024/01/07 08:15:16;;;;;;;11.10;7.43;;;;;;;4.97;93.85;98990.13;7225408;40;20876;31
2024/01/07 08:20:36;;;;;;;9.77;7.27;;;;;;;4.92;94.51;99000.38;7195710;40;20980;31
2024/01/07 08:31:15;;;;;;;10.13;6.70;;;;;;;4.86;94.70;99006.28;7202885;40;20742;31
2024/01/07 08:36:36;;;;;;;9.23;6.43;;;;;;;4.87;94.57;99013.28;7278551;39;20810;31
2024/01/07 08:42:11;;;;;;;9.85;7.10;;;;;;;4.84;94.17;99021.56;7347389;39;20340;31
2024/01/07 08:47:47;;;;;;;9.17;6.20;;;;;;;4.82;93.99;99020.88;7297032;39;20904;31
2024/01/07 08:53:08;;;;;;;8.73;5.90;;;;;;;4.86;94.37;99032.13;7225238;40;20796;31
2024/01/07 08:58:28;;;;;;;8.80;6.50;;;;;;;4.83;93.67;99038.56;7226879;40;20815;31
2024/01/07 09:04:01;;;;;;;8.43;6.23;;;;;;;4.79;93.68;99039.81;7234367;40;20781;31
2024/01/07 09:09:37;;;;;;;9.50;7.40;;;;;;;4.77;94.14;99051.62;7221346;40;20796;31
2024/01/07 09:20:13;;;;;;;9.70;7.00;;;;;;;4.76;94.25;99053.44;7217403;40;21266;31
2024/01/07 09:25:34;;;;;;;11.13;7.00;;;;;;;4.72;94.80;99065.38;7189728;40;20858;31
2024/01/07 09:30:54;;;;;;;7.30;5.77;;;;;;;4.74;94.01;99073.25;7197157;40;20728;31
2024/01/07 09:36:30;;;;;;;8.33;6.80;;;;;;;4.68;93.34;99084.44;7201670;40;20343;31
2024/01/07 09:41:51;;;;;;;8.60;6.70;;;;;;;4.70;93.12;99086.00;7184252;40;20911;31
2024/01/07 09:52:31;;;;;;;8.53;6.43;;;;;;;4.73;93.11;99084.91;7268525;40;20712;31
2024/01/07 09:58:06;;;;;;;8.07;6.60;;;;;;;4.79;93.22;99087.03;7289904;39;20312;31
2024/01/07 10:03:41;;;;;;;9.15;5.15;;;;;;;4.74;93.23;99086.59;7278911;40;20245;31
2024/01/07 10:09:15;;;;;;;8.30;6.87;;;;;;;4.77;93.25;99091.66;7253849;40;20509;31
2024/01/07 10:19:52;;;;;;;9.70;7.30;;;;;;;4.71;92.77;99090.34;7257458;39;21302;31
2024/01/07 10:25:28;;;;;;;9.87;6.87;;;;;;;4.66;92.03;99089.06;7243404;40;20802;31
2024/01/07 10:31:03;;;;;;;8.27;6.55;;;;;;;4.73;92.82;99096.44;7070104;40;20249;31
2024/01/07 10:36:38;;;;;;;11.30;7.70;;;;;;;4.75;92.03;99093.59;7162828;40;20256;31
2024/01/07 10:42:15;;;;;;;9.70;7.30;;;;;;;4.77;91.92;99094.34;7147737;40;20264;31
2024/01/07 10:48:00;;;;;;;8.40;5.87;;;;;;;4.77;91.68;99100.53;7159507;40;20294;31
2024/01/07 10:53:35;;;;;;;11.07;7.10;;;;;;;4.75;91.47;99106.94;7178943;40;20261;31
2024/01/07 10:59:12;;;;;;;8.03;6.37;;;;;;;4.73;91.48;99108.94;7209626;40;20351;31
2024/01/07 11:04:48;;;;;;;8.30;6.10;;;;;;;4.73;90.45;99120.47;7195835;40;20266;31
2024/01/07 11:10:21;;;;;;;8.50;5.93;;;;;;;4.73;89.93;99120.47;7217517;40;20250;31
2024/01/07 11:16:10;;;;;;;16.23;10.43;;;;;;;4.68;89.97;99116.47;7217513;40;20401;31
2024/01/07 11:21:46;;;;;;;7.80;5.90;;;;;;;4.62;89.46;99115.19;7225642;40;20299;31
2024/01/07 11:27:21;;;;;;;7.17;5.83;;;;;;;4.58;88.79;99123.56;7222104;40;20253;31
2024/01/07 11:32:57;;;;;;;6.83;4.97;;;;;;;4.50;87.92;99116.22;7210464;40;20305;31
2024/01/07 11:38:32;;;;;;;6.20;4.80;;;;;;;4.53;87.84;99129.31;7233965;40;20242;31
2024/01/07 11:44:11;;;;;;;6.90;5.10;;;;;;;4.59;87.97;99135.94;7210064;40;20396;31
2024/01/07 11:49:47;;;;;;;7.03;5.10;;;;;;;4.54;86.92;99129.19;7177132;40;20262;31
2024/01/07 11:55:22;;;;;;;6.40;4.95;;;;;;;4.41;85.68;99128.53;7248623;40;20709;31
2024/01/07 12:00:57;;;;;;;6.43;4.87;;;;;;;4.37;85.11;99128.91;7267919;40;20375;31
2024/01/07 12:06:33;;;;;;;5.83;4.53;;;;;;;4.24;84.75;99131.78;7232933;40;20238;31
2024/01/07 12:12:08;;;;;;;6.80;4.80;;;;;;;4.26;85.13;99120.94;7246793;40;20249;31
2024/01/07 12:17:28;;;;;;;5.00;4.00;;;;;;;4.39;86.79;99137.63;7209018;40;20258;31
2024/01/07 12:23:02;;;;;;;5.80;4.50;;;;;;;4.52;84.77;99141.78;7236293;40;20246;31
2024/01/07 12:28:37;;;;;;;5.90;4.20;;;;;;;4.48;84.34;99143.03;7238645;39;20373;31
2024/01/07 12:34:12;;;;;;;5.03;4.43;;;;;;;4.41;83.41;99135.69;7221110;40;20467;31
2024/01/07 12:39:48;;;;;;;5.20;4.30;;;;;;;4.43;84.23;99144.41;7237819;40;20242;31
2024/01/07 12:45:23;;;;;;;4.60;4.10;;;;;;;4.44;83.64;99152.28;7209347;40;20343;31
2024/01/07 12:50:43;;;;;;;5.55;3.95;;;;;;;4.26;82.68;99156.47;7191539;40;20388;31
2024/01/07 12:56:18;;;;;;;4.57;4.00;;;;;;;4.17;82.67;99162.56;7161203;40;20258;31
2024/01/07 13:01:53;;;;;;;5.43;4.50;;;;;;;4.08;82.73;99168.69;7148646;40;20262;31
2024/01/07 13:07:11;;;;;;;6.43;4.53;;;;;;;4.19;83.95;99170.47;7140892;40;20507;31
2024/01/07 13:12:48;;;;;;;5.90;5.00;;;;;;;4.06;82.64;99170.63;7182021;40;20273;31
2024/01/07 13:18:23;;;;;;;6.22;4.97;;;;;;;4.02;82.93;99177.19;7186153;40;20255;31
2024/01/07 13:29:00;;;;;;;6.40;4.60;;;;;;;3.86;82.72;99184.75;7174846;40;21515;31
2024/01/07 13:39:36;;;;;;;5.35;4.15;;;;;;;3.86;83.66;99195.44;7276603;39;21431;31
2024/01/07 13:45:13;;;;;;;6.55;5.40;;;;;;;3.80;83.90;99193.25;7243304;40;20223;31
2024/01/07 13:50:30;;;;;;;7.25;4.80;;;;;;;3.76;83.78;99205.12;7280939;39;20371;31
2024/01/07 13:56:07;;;;;;;6.90;5.20;;;;;;;3.71;83.52;99209.97;7276464;40;20378;31
2024/01/07 14:01:42;;;;;;;9.07;5.83;;;;;;;3.76;84.04;99218.47;7226048;40;20245;31
2024/01/07 14:07:12;;;;;;;9.65;5.55;;;;;;;3.69;82.73;99223.41;7269089;39;20934;31
2024/01/07 14:12:48;;;;;;;6.93;5.37;;;;;;;3.69;82.88;99243.88;7238549;40;20364;31
2024/01/07 14:23:27;;;;;;;6.87;4.93;;;;;;;3.45;80.69;99254.69;7244334;40;21389;31
2024/01/07 14:33:51;;;;;;;6.60;4.47;;;;;;;3.28;79.47;99276.47;7279615;40;20255;31
2024/01/07 14:44:32;;;;;;;6.17;4.43;;;;;;;3.16;79.44;99270.25;7335759;39;20254;31
2024/01/07 14:49:52;;;;;;;6.65;4.20;;;;;;;3.05;78.71;99278.25;7297227;40;20795;31
2024/01/07 14:55:27;;;;;;;8.83;5.50;;;;;;;3.09;80.31;99288.53;7285954;40;20323;31
2024/01/07 15:01:03;;;;;;;6.50;5.00;;;;;;;3.08;79.04;99285.97;7256033;40;20253;31
2024/01/07 15:06:24;;;;;;;6.40;4.80;;;;;;;3.01;79.05;99300.75;7208963;40;20307;31
2024/01/07 15:11:48;;;;;;;7.07;5.00;;;;;;;2.85;77.94;99309.03;7224144;40;20274;31
2024/01/07 15:17:22;;;;;;;3.90;2.93;;;;;;;2.80;79.16;99310.34;7281850;39;20248;31
2024/01/07 15:22:42;;;;;;;6.68;4.38;;;;;;;2.84;79.65;99317.13;7273708;39;21418;31
2024/01/07 15:28:02;;;;;;;8.67;5.07;;;;;;;2.95;79.52;99323.34;7256386;40;20241;31
2024/01/07 15:33:39;;;;;;;6.55;4.40;;;;;;;2.83;79.61;99326.94;7258171;40;20246;31
2024/01/07 15:39:14;;;;;;;6.57;4.67;;;;;;;2.76;79.17;99343.47;7209811;40;20447;31
2024/01/07 15:49:56;;;;;;;7.47;5.00;;;;;;;2.68;79.35;99349.34;7158533;40;20271;31
2024/01/07 15:55:32;;;;;;;6.10;4.40;;;;;;;2.65;79.67;99360.22;7200269;40;20384;31
2024/01/07 16:00:53;;;;;;;8.15;5.70;;;;;;;2.65;78.50;99366.41;7193420;40;20243;31
2024/01/07 16:06:29;;;;;;;20.60;10.90;;;;;;;2.51;78.07;99374.53;7216432;40;20320;31
2024/01/07 16:11:51;;;;;;;14.53;11.90;;;;;;;2.51;77.92;99392.31;7223236;40;20407;31
2024/01/07 16:22:30;;;;;;;7.10;5.00;;;;;;;2.36;76.55;99406.72;7276565;39;20291;31
2024/01/07 16:28:06;;;;;;;6.80;4.90;;;;;;;2.48;77.06;99414.66;7253504;40;20249;31
2024/01/07 16:33:26;;;;;;;7.40;5.10;;;;;;;2.34;77.59;99425.44;7258242;40;20261;31
2024/01/07 16:44:07;;;;;;;7.55;4.40;;;;;;;2.23;78.21;99434.19;7260819;39;21247;31
2024/01/07 16:54:26;;;;;;;5.93;4.20;;;;;;;2.23;78.33;99454.63;7247867;40;21264;31
2024/01/07 17:05:09;;;;;;;6.07;4.20;;;;;;;2.06;78.48;99461.09;7254250;39;20288;31
2024/01/07 17:10:28;;;;;;;6.90;4.50;;;;;;;1.97;77.03;99468.88;7297957;39;20374;31
2024/01/07 17:21:09;;;;;;;5.50;4.20;;;;;;;1.93;77.88;99478.84;7277104;40;20764;31
2024/01/07 17:26:29;;;;;;;4.30;3.62;;;;;;;1.85;76.52;99501.59;7005214;40;21141;31
2024/01/07 17:37:07;;;;;;;4.00;2.97;;;;;;;1.72;76.61;99510.38;7317999;39;21339;31
2024/01/07 17:42:27;;;;;;;5.80;3.50;;;;;;;1.58;77.04;99518.44;7252854;40;20245;31
2024/01/07 17:47:47;;;;;;;3.60;2.70;;;;;;;1.49;76.06;99523.53;7257695;40;20285;31
2024/01/07 17:53:24;;;;;;;5.60;3.23;;;;;;;1.42;75.22;99532.84;7260797;40;20265;31
2024/01/07 17:58:59;;;;;;;3.20;2.63;;;;;;;1.29;75.32;99533.66;7216426;40;21347;31
2024/01/07 18:04:16;;;;;;;3.30;2.30;;;;;;;1.28;74.52;99541.69;7177105;40;20754;31
2024/01/07 18:09:53;;;;;;;3.60;2.53;;;;;;;1.14;74.27;99539.94;7178055;40;20357;31
2024/01/07 18:15:28;;;;;;;3.05;2.40;;;;;;;1.12;73.94;99568.41;7200092;40;20253;31
2024/01/07 18:20:49;;;;;;;7.40;4.07;;;;;;;0.96;72.80;99564.19;7259229;40;20246;31
2024/01/07 18:26:25;;;;;;;3.37;2.30;;;;;;;0.81;72.44;99569.50;7258508;40;20252;31
2024/01/07 18:32:02;;;;;;;3.40;2.10;;;;;;;0.84;73.10;99577.25;7164706;40;20263;31
2024/01/07 18:37:21;;;;;;;2.73;2.10;;;;;;;0.78;73.31;99590.06;7201580;40;20243;31
2024/01/07 18:42:53;;;;;;;3.70;1.70;;;;;;;0.56;73.19;99587.88;7166301;40;20250;31
2024/01/07 18:48:29;;;;;;;2.37;1.97;;;;;;;0.58;72.19;99590.44;7175198;40;20704;31
2024/01/07 18:53:49;;;;;;;2.80;2.00;;;;;;;0.64;73.16;99603.31;7233559;40;20386;31
2024/01/07 18:59:25;;;;;;;3.65;2.15;;;;;;;0.54;72.81;99602.16;7240615;40;20266;31
2024/01/07 19:04:45;;;;;;;2.23;1.70;;;;;;;0.45;71.90;99612.41;7256459;40;20239;31
2024/01/07 19:10:22;;;;;;;2.27;1.70;;;;;;;0.40;72.33;99624.22;7235637;40;20242;31
2024/01/07 19:15:56;;;;;;;2.70;1.65;;;;;;;0.32;71.54;99632.63;7209024;40;20699;31
2024/01/07 19:21:31;;;;;;;2.00;1.65;;;;;;;0.28;71.42;99641.72;7177017;40;20247;31
2024/01/07 19:26:51;;;;;;;2.57;1.60;;;;;;;0.27;70.92;99641.81;7226408;40;20785;31
2024/01/07 19:32:25;;;;;;;1.90;1.70;;;;;;;0.23;72.00;99638.47;7204660;40;20242;31
2024/01/07 19:38:00;;;;;;;2.50;1.60;;;;;;;0.29;71.56;99653.19;7236145;39;20249;31
2024/01/07 19:43:35;;;;;;;1.87;1.40;;;;;;;0.31;71.50;99648.63;7176539;40;20686;31
2024/01/07 19:49:11;;;;;;;2.10;1.70;;;;;;;0.30;70.57;99661.06;7186658;40;20238;31
2024/01/07 19:54:31;;;;;;;1.70;1.33;;;;;;;0.21;69.63;99656.28;7198070;40;20242;31
2024/01/07 19:59:52;;;;;;;1.70;1.40;;;;;;;0.20;70.80;99670.47;7222011;40;20262;31
2024/01/07 20:05:26;;;;;;;4.20;2.60;;;;;;;0.18;70.60;99674.16;7227647;39;20253;31
2024/01/07 20:10:47;;;;;;;7.03;2.93;;;;;;;0.18;70.29;99663.53;7236329;40;20253;31
2024/01/07 20:16:07;;;;;;;2.90;2.10;;;;;;;0.18;70.88;99677.66;7244870;40;20249;31
2024/01/07 20:21:41;;;;;;;2.00;1.20;;;;;;;0.09;69.53;99677.38;7263641;40;20249;31
2024/01/07 20:26:57;;;;;;;1.90;1.50;;;;;;;0.19;71.17;99678.50;7195509;40;20254;31
2024/01/07 20:32:15;;;;;;;2.65;1.60;;;;;;;0.23;70.70;99685.34;7240854;40;20250;31
2024/01/07 20:37:52;;;;;;;2.45;1.35;;;;;;;0.14;70.09;99675.28;7240200;40;20235;31
2024/01/07 20:43:27;;;;;;;2.23;1.80;;;;;;;0.17;70.66;99688.37;7250992;40;20256;31
2024/01/07 20:49:02;;;;;;;1.20;1.07;;;;;;;0.04;70.09;99697.97;7287996;39;20685;31
2024/01/07 20:54:40;;;;;;;2.60;1.60;;;;;;;0.06;71.00;99696.91;7258072;40;20242;31
2024/01/07 20:59:58;;;;;;;2.20;1.40;;;;;;;0.03;70.00;99705.06;7208400;40;20262;31
2024/01/07 21:05:19;;;;;;;1.90;1.70;;;;;;;0.12;70.50;99712.47;7198249;40;20451;31
2024/01/07 21:10:57;;;;;;;4.65;1.40;;;;;;;0.14;70.10;99715.03;7206966;40;20242;31
2024/01/07 21:16:29;;;;;;;2.27;1.30;;;;;;;0.09;70.06;99715.28;7245509;39;20245;31
2024/01/07 21:22:04;;;;;;;2.13;1.80;;;;;;;0.10;71.08;99721.44;7222350;40;20262;31
2024/01/07 21:27:40;;;;;;;2.55;1.90;;;;;;;0.11;70.17;99724.00;7198166;40;20702;31
2024/01/07 21:33:11;;;;;;;2.50;1.70;;;;;;;0.12;69.38;99722.22;7127157;40;20243;31
2024/01/07 21:38:31;;;;;;;2.97;1.70;;;;;;;0.19;70.12;99729.72;7163838;40;20279;31
2024/01/07 21:49:14;;;;;;;1.47;1.33;;;;;;;0.08;69.72;99723.34;7268713;39;20273;31
2024/01/07 21:54:47;;;;;;;2.20;1.50;;;;;;;0.00;70.08;99732.56;7247757;40;20241;31
2024/01/07 22:00:09;;;;;;;1.80;1.50;;;;;;;0.08;69.79;99729.50;7273188;40;20277;31
2024/01/07 22:10:49;;;;;;;1.87;1.63;;;;;;;0.12;69.84;99735.47;7253749;40;20350;31
2024/01/07 22:21:28;;;;;;;5.13;3.07;;;;;;;0.12;68.80;99736.34;7275818;40;21442;31
2024/01/07 22:32:05;;;;;;;2.27;1.87;;;;;;;0.18;68.84;99745.69;7268096;39;21489;31
2024/01/07 22:37:26;;;;;;;2.30;1.70;;;;;;;0.15;69.72;99751.19;7281542;39;20269;31
2024/01/07 22:48:06;;;;;;;1.55;1.45;;;;;;;0.15;69.84;99746.75;7278035;40;20410;31
2024/01/07 22:58:31;;;;;;;2.17;1.70;;;;;;;0.13;69.07;99748.66;7318702;39;20434;31
2024/01/07 23:09:10;;;;;;;1.57;1.47;;;;;;;0.15;69.33;99745.88;7320455;39;20428;31
2024/01/07 23:19:32;;;;;;;2.37;1.70;;;;;;;0.24;70.24;99753.31;7290390;39;20253;31
2024/01/07 23:25:07;;;;;;;6.17;1.93;;;;;;;0.22;70.04;99753.38;7281635;40;20261;31
2024/01/07 23:30:42;;;;;;;1.95;1.75;;;;;;;0.17;69.31;99759.91;7236091;40;20237;31
2024/01/07 23:36:17;;;;;;;2.55;1.70;;;;;;;0.16;69.31;99759.06;7257913;40;20653;31
2024/01/07 23:41:53;;;;;;;3.00;2.00;;;;;;;0.20;69.96;99757.09;7169500;40;20612;31
2024/01/07 23:47:14;;;;;;;2.00;1.50;;;;;;;0.20;70.24;99760.59;7196702;40;20295;31
2024/01/07 23:52:48;;;;;;;2.00;1.53;;;;;;;0.22;69.78;99765.81;7186712;40;20270;31
2024/01/07 23:58:22;;;;;;;2.00;1.60;;;;;;;0.15;69.14;99765.28;7225260;40;20257;31
